METAR Data
IDs: Format: Raw Decoded Include TAF

Data at: 0902 UTC 09 Apr 2020

METAR for:KAUS (Austin/Bergstrom Int, TX, US)
Text:KAUS 090853Z 00000KT 6SM BR SCT010 BKN200 22/21 A2985 RMK AO2 SLP098 T02170211 58011 $
Temperature: 21.7°C ( 71°F)
Dewpoint: 21.1°C ( 70°F) [RH = 96%]
Pressure (altimeter):29.85 inches Hg (1010.9 mb) [Sea level pressure: 1009.8 mb]
Winds:calm
Visibility: 6 sm ( 10 km)
Ceiling:20000 feet AGL
Clouds: scattered clouds at 1000 feet AGL, broken clouds at 20000 feet AGL
Weather:BR (mist)
QC Flag:SOME DATA ABOVE MAY BE INACCURATE!!!"$" is an indication the sensor requires maintenance.